Terminal Aerodrome Forecast
Issued by NWS

Home | Current Version | Previous Version | Text Only | Print | Product List | Glossary On
Versions: 1 2 3 4 5 6 7 8 9 10 11 12 13 14 15 16 17 18 19 20 21 22 23 24 25 26 27 28
000
FTUS43 KSGF 171100
TAFBBG
TAF
KBBG 171120Z 1712/1812 13003KT 1/4SM FG OVC002
     FM171500 17008KT 5SM BR VCTS SCT005 BKN040CB
     FM171800 21008KT P6SM -SHRA SCT040 BKN060
     FM172300 15005KT P6SM VCSH BKN100
     FM180400 VRB03KT 2SM BR SCT010 OVC100
     FM180700 VRB03KT 1/2SM FG OVC002=

USA.gov is the U.S. government's official web portal to all federal, state and local government web resources and services.